Time;durP1;ratioP1;P1;durP2;ratioP2;P2;SDS_P1;SDS_P2;PMS_P1;PMS_P2;Temp;Humidity;BMP_temperature;BMP_pressure;BME280_temperature;BME280_humidity;BME280_pressure;Samples;Min_cycle;Max_cycle;Signal;HPM_P1;HPM_P2
2022/07/23 00:00:08;;;;;;;6.77;3.63;;;;;;;22.70;68.82;95903.03;5026639;28;24482;-74
2022/07/23 00:02:34;;;;;;;6.25;3.50;;;;;;;22.78;68.35;95910.09;5024162;28;25075;-73
2022/07/23 00:05:01;;;;;;;5.10;3.80;;;;;;;22.75;68.50;95905.97;5026934;28;24849;-74
2022/07/23 00:07:28;;;;;;;4.60;3.78;;;;;;;22.69;69.04;95909.28;5027506;28;25035;-74
2022/07/23 00:09:55;;;;;;;5.40;3.83;;;;;;;22.87;68.74;95898.50;5017064;28;24467;-74
2022/07/23 00:12:22;;;;;;;7.00;4.10;;;;;;;22.69;69.35;95888.16;5022615;28;24442;-74
2022/07/23 00:14:49;;;;;;;4.75;3.50;;;;;;;22.69;69.38;95886.38;5027721;28;24444;-73
2022/07/23 00:17:15;;;;;;;4.35;3.90;;;;;;;22.58;69.91;95884.06;5020833;28;24790;-73
2022/07/23 00:19:41;;;;;;;5.13;3.40;;;;;;;22.55;70.00;95884.41;5021131;28;24587;-74
2022/07/23 00:22:08;;;;;;;3.88;3.50;;;;;;;22.52;70.03;95889.19;5024987;28;25039;-74
2022/07/23 00:24:34;;;;;;;6.03;4.00;;;;;;;22.53;69.80;95896.94;5028925;28;25004;-74
2022/07/23 00:27:02;;;;;;;4.78;3.60;;;;;;;22.51;69.34;95884.88;5025159;28;24850;-73
2022/07/23 00:29:29;;;;;;;6.50;3.58;;;;;;;22.43;70.15;95856.69;5027119;28;24431;-73
2022/07/23 00:31:55;;;;;;;5.22;3.65;;;;;;;22.50;69.80;95872.69;5028725;28;24432;-74
2022/07/23 00:34:21;;;;;;;5.57;3.78;;;;;;;22.50;69.90;95864.78;5028894;28;24459;-73
2022/07/23 00:36:48;;;;;;;4.20;3.78;;;;;;;22.43;69.68;95862.81;5025114;28;24439;-73
2022/07/23 00:39:14;;;;;;;7.88;3.70;;;;;;;22.41;69.30;95856.06;5023940;28;24440;-74
2022/07/23 00:41:41;;;;;;;6.70;3.85;;;;;;;22.40;68.62;95860.50;5029008;28;25067;-74
2022/07/23 00:44:21;;;;;;;4.15;3.42;;;;;;;22.46;68.13;95862.47;5024554;28;24460;-73
2022/07/23 00:46:49;;;;;;;5.22;3.42;;;;;;;22.42;68.50;95865.59;5018917;28;24452;-74
2022/07/23 00:49:16;;;;;;;4.65;3.63;;;;;;;22.41;69.10;95867.44;5029623;28;24443;-74
2022/07/23 00:51:43;;;;;;;6.03;4.03;;;;;;;22.44;69.17;95882.94;5026972;28;24448;-74
2022/07/23 00:54:09;;;;;;;4.50;3.80;;;;;;;22.39;69.33;95876.50;5026643;28;24432;-74
2022/07/23 00:56:36;;;;;;;5.18;3.67;;;;;;;22.41;68.09;95871.88;5029953;28;24459;-72
2022/07/23 00:59:03;;;;;;;4.50;3.63;;;;;;;22.44;68.85;95843.34;5030595;28;24439;-73
2022/07/23 01:01:30;;;;;;;5.22;3.50;;;;;;;22.44;68.46;95851.25;5029871;28;24858;-73
2022/07/23 01:03:57;;;;;;;3.60;3.30;;;;;;;22.39;68.54;95853.56;5029818;28;24502;-74
2022/07/23 01:06:23;;;;;;;4.47;3.55;;;;;;;22.33;68.96;95850.78;5026698;28;25020;-74
2022/07/23 01:08:50;;;;;;;3.55;2.80;;;;;;;22.36;68.42;95843.38;5033984;28;24511;-74
2022/07/23 01:11:18;;;;;;;4.68;3.10;;;;;;;22.23;68.44;95837.75;5025039;28;24444;-73
2022/07/23 01:13:45;;;;;;;4.78;3.30;;;;;;;22.35;68.24;95817.13;5025864;28;24435;-74
2022/07/23 01:16:11;;;;;;;3.50;3.20;;;;;;;22.51;67.82;95797.78;5023532;28;24974;-74
2022/07/23 01:18:39;;;;;;;4.80;3.83;;;;;;;22.76;66.42;95811.75;5033250;28;24793;-74
2022/07/23 01:21:06;;;;;;;3.55;3.20;;;;;;;22.54;67.08;95806.19;5026359;28;24443;-74
2022/07/23 01:23:34;;;;;;;3.65;3.20;;;;;;;22.56;68.26;95817.41;5030535;28;24450;-74
2022/07/23 01:26:00;;;;;;;4.97;3.47;;;;;;;22.41;69.26;95835.75;5025056;28;24482;-74
2022/07/23 01:28:27;;;;;;;4.68;3.10;;;;;;;22.50;66.82;95817.25;5029204;28;24571;-73
2022/07/23 01:30:53;;;;;;;3.43;2.67;;;;;;;22.41;66.67;95819.09;5023285;28;24436;-73
2022/07/23 01:33:19;;;;;;;3.55;3.25;;;;;;;22.44;66.07;95793.22;5030406;28;24440;-74
2022/07/23 01:35:46;;;;;;;4.43;3.00;;;;;;;22.49;65.95;95774.22;5033570;28;25026;-74
2022/07/23 01:38:12;;;;;;;5.22;3.05;;;;;;;22.48;66.56;95766.47;5025297;28;24441;-74
2022/07/23 01:40:40;;;;;;;3.77;3.37;;;;;;;22.69;65.97;95788.69;5023184;28;24531;-74
2022/07/23 01:43:06;;;;;;;4.43;3.30;;;;;;;22.33;68.23;95804.13;5028150;28;24432;-74
2022/07/23 01:45:33;;;;;;;3.70;3.40;;;;;;;22.11;69.33;95817.97;5028048;28;24447;-73
2022/07/23 01:47:59;;;;;;;3.87;3.27;;;;;;;21.95;68.96;95824.06;5017648;28;24448;-73
2022/07/23 01:50:26;;;;;;;4.20;3.40;;;;;;;21.94;69.23;95825.88;5031058;28;24830;-74
2022/07/23 01:52:52;;;;;;;3.90;3.50;;;;;;;21.99;69.86;95836.78;5026797;28;24444;-73
2022/07/23 01:55:19;;;;;;;3.30;3.00;;;;;;;21.83;72.08;95839.38;5032689;28;24462;-74
2022/07/23 01:57:46;;;;;;;4.90;3.13;;;;;;;21.80;72.42;95836.25;5032785;28;24420;-74
2022/07/23 02:00:13;;;;;;;6.18;3.40;;;;;;;21.85;72.61;95832.16;5025216;28;24451;-73
2022/07/23 02:02:40;;;;;;;3.33;3.03;;;;;;;21.77;72.72;95826.03;5024799;28;24432;-73
2022/07/23 02:05:07;;;;;;;5.18;2.80;;;;;;;21.82;72.71;95831.66;5027874;28;25043;-73
2022/07/23 02:07:33;;;;;;;4.05;3.17;;;;;;;21.82;72.72;95840.38;5032349;28;24448;-73
2022/07/23 02:10:00;;;;;;;4.00;3.22;;;;;;;21.85;73.02;95855.06;5032985;28;24490;-73
2022/07/23 02:12:26;;;;;;;5.72;3.65;;;;;;;21.77;74.12;95857.66;5022272;28;24451;-73
2022/07/23 02:14:54;;;;;;;5.45;3.70;;;;;;;21.75;73.73;95856.03;5022768;28;24444;-73
2022/07/23 02:17:20;;;;;;;4.22;3.15;;;;;;;21.67;74.06;95855.19;5032718;28;24494;-73
2022/07/23 02:19:47;;;;;;;4.00;3.33;;;;;;;21.59;74.86;95871.00;5032296;28;24810;-73
2022/07/23 02:22:13;;;;;;;6.75;3.30;;;;;;;21.50;75.59;95884.13;5032544;28;24440;-73
2022/07/23 02:24:40;;;;;;;3.60;3.00;;;;;;;21.47;75.65;95895.03;5029147;28;24463;-73
2022/07/23 02:27:06;;;;;;;4.93;3.13;;;;;;;21.42;76.79;95915.75;5031099;28;24455;-73
2022/07/23 02:29:32;;;;;;;3.83;3.40;;;;;;;21.34;77.55;95925.44;5028281;28;24440;-73
2022/07/23 02:32:00;;;;;;;3.33;3.03;;;;;;;21.37;78.27;95927.75;5031605;28;24439;-73
2022/07/23 02:34:27;;;;;;;4.10;3.22;;;;;;;21.32;78.97;95930.84;5023494;28;24435;-73
2022/07/23 02:36:53;;;;;;;4.70;3.35;;;;;;;21.15;79.97;95926.47;5020797;28;24432;-73
2022/07/23 02:39:20;;;;;;;5.78;3.45;;;;;;;21.08;81.27;95930.72;5032008;28;24435;-73
2022/07/23 02:41:46;;;;;;;4.22;3.58;;;;;;;20.90;82.50;95933.41;5030649;28;24489;-73
2022/07/23 02:44:12;;;;;;;4.70;3.35;;;;;;;20.83;83.88;95930.59;5028501;28;24818;-73
2022/07/23 02:46:39;;;;;;;4.15;3.10;;;;;;;20.87;83.39;95944.25;5031731;28;24526;-73
2022/07/23 02:49:07;;;;;;;5.22;3.83;;;;;;;20.89;83.35;95942.31;5029425;28;24439;-73
2022/07/23 02:51:33;;;;;;;7.00;3.63;;;;;;;20.82;84.11;95944.72;5023279;28;24486;-73
2022/07/23 02:53:59;;;;;;;4.25;3.38;;;;;;;20.71;85.58;95953.72;5031844;28;24490;-73
2022/07/23 02:56:26;;;;;;;4.93;3.10;;;;;;;20.75;85.02;95949.78;5028607;28;24474;-73
2022/07/23 02:58:52;;;;;;;7.47;3.55;;;;;;;20.52;86.11;95946.84;5020904;28;24432;-73
2022/07/23 03:01:19;;;;;;;5.50;3.42;;;;;;;20.43;87.14;95953.00;5021394;28;24522;-73
2022/07/23 03:03:45;;;;;;;4.70;3.60;;;;;;;20.54;87.14;95939.63;5031886;28;24444;-73
2022/07/23 03:06:13;;;;;;;3.83;3.38;;;;;;;20.65;86.23;95929.81;5029250;28;24455;-73
2022/07/23 03:08:39;;;;;;;4.65;3.75;;;;;;;20.71;85.60;95934.47;5019310;28;24452;-73
2022/07/23 03:11:10;;;;;;;5.03;3.55;;;;;;;20.75;85.18;95930.53;5024770;28;24489;-73
2022/07/23 03:13:37;;;;;;;6.55;3.58;;;;;;;20.84;84.44;95928.78;5031147;28;25054;-74
2022/07/23 03:16:03;;;;;;;4.43;3.50;;;;;;;20.82;84.16;95926.31;5030700;28;25043;-73
2022/07/23 03:18:30;;;;;;;3.65;3.28;;;;;;;20.71;84.35;95930.03;5028266;28;24478;-73
2022/07/23 03:20:57;;;;;;;4.50;3.47;;;;;;;20.77;83.96;95928.59;5023197;28;24815;-73
2022/07/23 03:23:25;;;;;;;5.18;3.60;;;;;;;20.81;83.48;95935.19;5029377;28;24439;-73
2022/07/23 03:25:51;;;;;;;3.50;3.20;;;;;;;20.81;83.05;95935.19;5011569;28;24439;-73
2022/07/23 03:28:18;;;;;;;5.13;3.80;;;;;;;20.78;83.09;95935.50;5026307;28;24448;-74
2022/07/23 03:30:46;;;;;;;5.18;3.58;;;;;;;20.74;82.91;95934.16;5022819;28;25110;-73
2022/07/23 03:33:13;;;;;;;4.18;3.78;;;;;;;20.72;82.96;95923.75;5027187;28;24440;-74
2022/07/23 03:35:39;;;;;;;5.85;3.35;;;;;;;20.78;82.45;95927.59;5015820;28;24451;-74
2022/07/23 03:38:06;;;;;;;4.15;3.75;;;;;;;20.79;82.56;95926.63;5030560;28;24583;-74
2022/07/23 03:40:33;;;;;;;3.83;3.42;;;;;;;20.68;81.44;95922.44;5022270;28;24443;-73
2022/07/23 03:43:00;;;;;;;5.80;3.97;;;;;;;20.51;81.78;95924.16;5029670;28;24435;-73
2022/07/23 03:45:26;;;;;;;4.93;3.70;;;;;;;20.64;81.81;95928.97;5028305;28;24820;-73
2022/07/23 03:47:53;;;;;;;6.43;3.97;;;;;;;20.93;83.42;95936.56;5026347;28;24456;-73
2022/07/23 03:50:20;;;;;;;5.15;3.72;;;;;;;20.90;84.53;95936.88;5029346;28;24544;-73
2022/07/23 03:52:46;;;;;;;3.88;3.45;;;;;;;20.67;85.83;95941.03;5027654;28;25267;-73
2022/07/23 03:55:13;;;;;;;3.93;3.60;;;;;;;20.68;85.63;95942.66;5029761;28;24448;-73
2022/07/23 03:57:41;;;;;;;4.85;3.55;;;;;;;20.55;86.74;95940.44;5017767;28;24436;-73
2022/07/23 04:00:09;;;;;;;4.20;3.63;;;;;;;20.32;86.99;95942.72;5028908;28;24481;-73
2022/07/23 04:02:36;;;;;;;4.50;3.58;;;;;;;20.40;87.09;95944.59;5029775;28;24528;-73
2022/07/23 04:05:04;;;;;;;4.30;3.67;;;;;;;20.56;88.08;95933.38;5013318;28;24444;-73
2022/07/23 04:07:30;;;;;;;3.83;3.42;;;;;;;20.95;87.57;95952.19;5026822;28;24555;-73
2022/07/23 04:09:57;;;;;;;7.40;3.90;;;;;;;20.82;87.35;95941.28;5029753;28;24447;-73
2022/07/23 04:12:23;;;;;;;3.72;3.42;;;;;;;20.47;88.95;95938.56;5030004;28;24498;-73
2022/07/23 04:14:51;;;;;;;5.60;3.78;;;;;;;20.52;89.11;95941.56;5026366;28;24443;-74
2022/07/23 04:17:18;;;;;;;7.50;4.13;;;;;;;20.43;87.63;95942.47;5023375;28;24455;-73
2022/07/23 04:19:44;;;;;;;6.55;3.70;;;;;;;20.39;87.56;95945.53;5028213;28;24436;-73
2022/07/23 04:22:11;;;;;;;3.83;3.42;;;;;;;20.27;88.58;95950.22;5029543;28;24428;-74
2022/07/23 04:24:37;;;;;;;4.07;3.42;;;;;;;20.32;88.16;95942.72;5028615;28;25003;-73
2022/07/23 04:27:05;;;;;;;4.47;3.88;;;;;;;20.37;88.74;95942.25;5029290;28;24842;-74
2022/07/23 04:29:31;;;;;;;5.05;3.45;;;;;;;20.42;89.00;95945.25;5028805;28;24436;-74
2022/07/23 04:31:59;;;;;;;4.75;3.63;;;;;;;20.24;89.92;95943.44;5028016;28;24989;-73
2022/07/23 04:34:26;;;;;;;4.30;3.72;;;;;;;20.13;91.18;95950.75;5028373;28;24439;-74
2022/07/23 04:36:53;;;;;;;5.00;4.07;;;;;;;20.26;89.74;95941.50;5027852;28;24544;-73
2022/07/23 04:39:19;;;;;;;4.85;4.00;;;;;;;20.31;89.23;95941.03;5026311;28;24436;-73
2022/07/23 04:41:46;;;;;;;6.82;4.25;;;;;;;20.36;89.42;95959.00;5024486;28;24431;-73
2022/07/23 04:44:12;;;;;;;4.95;4.07;;;;;;;20.40;89.23;95952.47;5028716;28;24807;-73
2022/07/23 04:46:39;;;;;;;4.30;3.50;;;;;;;20.42;87.95;95939.97;5025518;28;24440;-73
2022/07/23 04:49:06;;;;;;;4.90;4.00;;;;;;;20.33;87.81;95944.38;5023123;28;24451;-74
2022/07/23 04:51:33;;;;;;;5.20;4.00;;;;;;;20.17;87.11;95952.09;5024849;28;24439;-73
2022/07/23 04:53:59;;;;;;;6.55;4.20;;;;;;;20.19;87.34;95958.03;5022906;28;24440;-73
2022/07/23 04:56:26;;;;;;;5.00;3.90;;;;;;;20.24;86.82;95961.84;5025886;28;24505;-73
2022/07/23 04:58:52;;;;;;;5.25;3.80;;;;;;;20.36;86.16;95959.00;5027674;28;24436;-74
2022/07/23 05:01:18;;;;;;;4.53;3.75;;;;;;;20.46;85.50;95950.03;5026402;28;25034;-74
2022/07/23 05:03:45;;;;;;;6.28;4.00;;;;;;;20.52;84.35;95949.47;5026555;28;25016;-73
2022/07/23 05:06:13;;;;;;;4.50;3.75;;;;;;;20.69;83.31;95942.53;5027820;28;25047;-73
2022/07/23 05:08:39;;;;;;;7.57;4.17;;;;;;;20.74;83.02;95955.22;5027185;28;24458;-74
2022/07/23 05:11:06;;;;;;;5.45;3.90;;;;;;;20.69;83.27;95960.09;5018871;28;24560;-73
2022/07/23 05:13:32;;;;;;;5.03;3.80;;;;;;;20.65;83.71;95956.13;5025889;28;24447;-73
2022/07/23 05:15:59;;;;;;;9.10;4.00;;;;;;;20.53;84.33;95960.81;5022187;28;25060;-74
2022/07/23 05:18:25;;;;;;;5.03;4.18;;;;;;;20.34;87.65;95960.97;5025067;28;24432;-74
2022/07/23 05:20:52;;;;;;;5.72;4.20;;;;;;;20.11;87.66;95960.59;5023930;28;24493;-74
2022/07/23 05:23:19;;;;;;;5.20;3.90;;;;;;;20.22;88.00;95970.91;5027272;28;24447;-74
2022/07/23 05:25:46;;;;;;;4.18;3.80;;;;;;;20.29;87.62;95969.31;5028855;28;24443;-73
2022/07/23 05:28:12;;;;;;;6.47;4.10;;;;;;;20.30;87.23;95965.69;5027896;28;25097;-73
2022/07/23 05:30:39;;;;;;;5.40;4.03;;;;;;;20.23;88.49;95967.28;5019096;28;24440;-74
2022/07/23 05:33:07;;;;;;;5.05;4.20;;;;;;;20.32;87.99;95974.28;5024376;28;24802;-73
2022/07/23 05:35:33;;;;;;;4.82;4.25;;;;;;;20.38;86.06;95970.19;5025843;28;24448;-73
2022/07/23 05:38:00;;;;;;;5.53;4.07;;;;;;;20.49;85.17;95972.59;5024162;28;24506;-73
2022/07/23 05:40:28;;;;;;;5.28;4.20;;;;;;;20.58;84.99;95977.00;5026809;28;24857;-73
2022/07/23 05:42:54;;;;;;;5.67;4.10;;;;;;;20.66;84.82;95978.84;5028783;28;24436;-73
2022/07/23 05:45:21;;;;;;;4.45;4.05;;;;;;;20.68;84.03;95982.13;5028465;28;24436;-73
2022/07/23 05:47:49;;;;;;;6.18;4.10;;;;;;;20.68;84.58;95969.81;5021687;28;24497;-73
2022/07/23 05:50:16;;;;;;;5.18;4.00;;;;;;;20.88;83.57;95969.63;5031236;28;24874;-73
2022/07/23 05:52:43;;;;;;;5.25;3.75;;;;;;;20.90;82.86;95976.38;5032546;28;24443;-73
2022/07/23 05:55:12;;;;;;;5.72;3.90;;;;;;;21.06;82.13;95975.63;5032299;28;24506;-73
2022/07/23 05:57:40;;;;;;;6.13;3.97;;;;;;;21.30;80.96;95966.22;5028230;28;24610;-73
2022/07/23 06:00:08;;;;;;;5.50;4.17;;;;;;;21.55;78.51;95951.38;5031409;28;24589;-73
2022/07/23 06:02:35;;;;;;;4.55;3.88;;;;;;;21.67;76.87;95944.81;5032395;28;24431;-73
2022/07/23 06:05:01;;;;;;;4.32;3.83;;;;;;;21.77;75.61;95958.69;5029690;28;25383;-73
2022/07/23 06:07:28;;;;;;;8.30;4.37;;;;;;;21.72;75.34;95961.78;5026849;28;25062;-74
2022/07/23 06:09:54;;;;;;;4.75;4.18;;;;;;;21.71;74.97;95975.13;5029191;28;25004;-73
2022/07/23 06:12:21;;;;;;;5.70;4.20;;;;;;;21.71;76.22;95975.97;5032160;28;24443;-73
2022/07/23 06:14:49;;;;;;;5.10;3.95;;;;;;;21.55;75.92;95981.19;5027590;28;24439;-74
2022/07/23 06:17:16;;;;;;;5.07;3.90;;;;;;;21.46;74.76;95995.28;5024777;28;24959;-73
2022/07/23 06:19:43;;;;;;;5.97;4.35;;;;;;;21.59;78.60;95993.06;5027048;28;24574;-73
2022/07/23 06:22:09;;;;;;;5.78;3.97;;;;;;;21.54;78.80;95997.13;5023151;28;24440;-73
2022/07/23 06:24:35;;;;;;;5.93;4.45;;;;;;;21.62;76.08;95994.56;5031365;28;24439;-73
2022/07/23 06:27:02;;;;;;;5.05;3.85;;;;;;;21.64;77.88;96009.22;5032258;28;24449;-73
2022/07/23 06:29:28;;;;;;;6.82;3.95;;;;;;;21.45;77.75;96018.19;5030051;28;25049;-73
2022/07/23 06:31:56;;;;;;;5.13;4.57;;;;;;;21.38;77.96;96016.34;5032054;28;24439;-73
2022/07/23 06:34:23;;;;;;;5.13;4.40;;;;;;;21.26;77.84;96019.22;5022903;28;25048;-73
2022/07/23 06:36:49;;;;;;;8.10;4.13;;;;;;;21.29;77.20;96022.53;5027573;28;24467;-73
2022/07/23 06:39:16;;;;;;;5.78;4.57;;;;;;;21.25;76.12;96014.13;5029333;28;24428;-73
2022/07/23 06:41:42;;;;;;;4.90;4.00;;;;;;;21.16;77.27;96025.56;5023793;28;24442;-73
2022/07/23 06:44:09;;;;;;;7.47;4.22;;;;;;;21.11;77.50;96031.31;5029879;28;24519;-73
2022/07/23 06:46:35;;;;;;;4.60;4.00;;;;;;;21.06;79.14;96030.09;5030926;28;24448;-73
2022/07/23 06:49:04;;;;;;;5.28;3.40;;;;;;;21.10;79.95;96021.78;5029562;28;24509;-73
2022/07/23 06:51:31;;;;;;;4.85;4.32;;;;;;;21.69;79.03;95995.53;5031339;28;24952;-72
2022/07/23 06:53:58;;;;;;;6.32;4.28;;;;;;;21.53;83.14;95977.06;5030621;28;24443;-72
2022/07/23 06:56:24;;;;;;;9.77;4.40;;;;;;;21.09;85.35;96000.84;5022474;28;24982;-72
2022/07/23 06:58:51;;;;;;;8.00;4.15;;;;;;;20.91;88.31;95999.09;5030405;28;24996;-72
2022/07/23 07:01:17;;;;;;;6.53;4.43;;;;;;;20.94;90.48;96013.75;5025800;28;25000;-72
2022/07/23 07:03:44;;;;;;;6.30;4.13;;;;;;;20.85;92.77;96025.22;5030723;28;24439;-72
2022/07/23 07:06:12;;;;;;;7.18;4.20;;;;;;;20.39;95.73;96029.72;5024364;28;24448;-73
2022/07/23 07:08:38;;;;;;;6.45;4.45;;;;;;;20.01;99.66;96032.47;5027201;28;24460;-73
2022/07/23 07:11:05;;;;;;;5.97;4.32;;;;;;;20.00;100.00;96036.09;5019181;28;24432;-73
2022/07/23 07:13:31;;;;;;;5.55;4.60;;;;;;;20.12;100.00;96038.50;5024837;28;24458;-73
2022/07/23 07:15:58;;;;;;;5.57;4.60;;;;;;;20.08;98.29;96043.22;5028423;28;24902;-73
2022/07/23 07:18:24;;;;;;;6.50;4.33;;;;;;;20.21;99.85;96048.97;5025168;28;24477;-73
2022/07/23 07:20:50;;;;;;;6.38;4.88;;;;;;;20.00;99.74;96059.75;5021649;28;24657;-73
2022/07/23 07:23:20;;;;;;;4.72;4.18;;;;;;;20.03;100.00;96056.00;5030848;28;24439;-73
2022/07/23 07:25:46;;;;;;;5.18;4.55;;;;;;;19.95;98.86;96054.13;5028317;28;24494;-73
2022/07/23 07:28:13;;;;;;;4.95;4.45;;;;;;;20.06;99.13;96056.53;5025765;28;24450;-73
2022/07/23 07:30:39;;;;;;;13.65;4.55;;;;;;;20.15;98.33;96051.34;5022714;28;24432;-73
2022/07/23 07:33:06;;;;;;;5.95;4.55;;;;;;;20.36;99.38;96059.81;5028126;28;24439;-73
2022/07/23 07:35:32;;;;;;;6.32;4.40;;;;;;;20.63;98.66;96064.19;5028473;28;24837;-73
2022/07/23 07:37:59;;;;;;;5.38;4.32;;;;;;;20.79;95.16;96069.56;5028516;28;24519;-73
2022/07/23 07:40:27;;;;;;;6.07;4.32;;;;;;;20.93;97.56;96070.03;5029941;28;24834;-74
2022/07/23 07:42:56;;;;;;;5.03;4.18;;;;;;;20.86;93.77;96076.88;5027695;28;24439;-73
2022/07/23 07:45:24;;;;;;;8.70;4.95;;;;;;;20.71;95.04;96071.31;5028334;28;24444;-73
2022/07/23 07:47:51;;;;;;;4.65;4.10;;;;;;;20.98;91.27;96073.00;5027654;28;24973;-73
2022/07/23 07:50:17;;;;;;;7.35;4.18;;;;;;;21.34;93.20;96065.06;5027669;28;24463;-73
2022/07/23 07:52:44;;;;;;;6.93;4.50;;;;;;;22.01;87.35;96066.03;5028158;28;24490;-73
2022/07/23 07:55:12;;;;;;;5.68;4.40;;;;;;;22.36;81.94;96067.66;5024016;28;24444;-73
2022/07/23 07:57:40;;;;;;;4.80;4.28;;;;;;;22.45;84.32;96077.22;5029807;28;24440;-75
2022/07/23 08:00:09;;;;;;;7.15;4.72;;;;;;;22.28;81.49;96067.63;5022108;28;24458;-73
2022/07/23 08:02:41;;;;;;;5.05;4.13;;;;;;;22.29;81.60;96074.56;5026807;28;24988;-76
2022/07/23 08:05:08;;;;;;;5.28;4.05;;;;;;;22.31;80.75;96074.38;5028811;28;24810;-76
2022/07/23 08:07:35;;;;;;;5.75;4.22;;;;;;;22.36;81.24;96066.81;5028675;28;24440;-76
2022/07/23 08:10:01;;;;;;;5.25;4.22;;;;;;;22.50;82.16;96062.72;5026194;28;24831;-77
2022/07/23 08:12:28;;;;;;;4.85;4.30;;;;;;;22.85;81.14;96064.25;5029065;28;24435;-76
2022/07/23 08:14:55;;;;;;;5.72;4.18;;;;;;;22.96;81.06;96066.56;5028984;28;24443;-74
2022/07/23 08:17:22;;;;;;;4.90;3.90;;;;;;;23.24;77.09;96071.50;5029725;28;24849;-74
2022/07/23 08:19:48;;;;;;;4.22;3.63;;;;;;;23.38;75.32;96074.28;5029218;28;24984;-75
2022/07/23 08:22:15;;;;;;;6.65;4.15;;;;;;;23.60;72.45;96069.28;5024424;28;24447;-74
2022/07/23 08:24:41;;;;;;;5.90;4.32;;;;;;;23.33;71.33;96070.50;5023665;28;24443;-72
2022/07/23 08:27:07;;;;;;;7.75;4.40;;;;;;;23.64;75.09;96070.59;5025145;28;24435;-76
2022/07/23 08:29:34;;;;;;;5.20;3.97;;;;;;;23.60;71.26;96069.28;5028711;28;24818;-75
2022/07/23 08:32:02;;;;;;;5.20;4.00;;;;;;;24.04;70.61;96071.47;5021263;28;24443;-76
2022/07/23 08:34:28;;;;;;;7.57;4.13;;;;;;;23.75;69.30;96070.25;5028188;28;24435;-76
2022/07/23 08:36:55;;;;;;;4.53;3.80;;;;;;;23.42;69.75;96072.94;5029511;28;24440;-76
2022/07/23 08:39:21;;;;;;;5.10;4.03;;;;;;;23.32;72.38;96074.94;5021129;28;24443;-75
2022/07/23 08:41:48;;;;;;;8.43;4.07;;;;;;;23.50;70.99;96072.09;5028302;28;24439;-76
2022/07/23 08:44:17;;;;;;;4.88;4.05;;;;;;;24.04;69.62;96074.09;5029111;28;24450;-74
2022/07/23 08:46:44;;;;;;;5.15;3.67;;;;;;;24.25;64.67;96084.06;5027729;28;24436;-75
2022/07/23 08:49:13;;;;;;;5.70;4.00;;;;;;;24.65;59.89;96084.88;5029205;28;24980;-75
2022/07/23 08:51:41;;;;;;;5.85;3.78;;;;;;;24.47;58.18;96074.56;5025523;28;24513;-75
2022/07/23 08:54:07;;;;;;;5.85;3.88;;;;;;;24.18;61.98;96083.13;5028643;28;24997;-74
2022/07/23 08:56:34;;;;;;;3.83;3.42;;;;;;;24.03;56.39;96080.38;5028440;28;24494;-75
2022/07/23 08:59:00;;;;;;;3.40;3.10;;;;;;;23.73;53.91;96077.53;5024073;28;24486;-74
2022/07/23 09:01:27;;;;;;;9.15;3.38;;;;;;;23.57;56.19;96070.44;5026991;28;24443;-74
2022/07/23 09:03:53;;;;;;;5.28;3.97;;;;;;;23.43;58.25;96071.97;5024024;28;24439;-74
2022/07/23 09:06:21;;;;;;;7.30;3.83;;;;;;;23.49;59.87;96082.84;5028890;28;24443;-74
2022/07/23 09:08:48;;;;;;;5.22;3.67;;;;;;;23.63;57.37;96079.53;5028326;28;24428;-74
2022/07/23 09:11:17;;;;;;;5.03;3.42;;;;;;;24.13;57.82;96081.00;5028730;28;25039;-74
2022/07/23 09:13:47;;;;;;;6.07;3.70;;;;;;;24.15;56.46;96082.47;5017661;28;24440;-74
2022/07/23 09:16:16;;;;;;;4.57;3.63;;;;;;;24.88;57.95;96075.09;5021076;28;24447;-74
2022/07/23 09:18:45;;;;;;;4.60;3.97;;;;;;;25.73;56.60;96072.13;5023753;28;25074;-74
2022/07/23 09:21:18;;;;;;;4.20;3.75;;;;;;;26.19;55.35;96068.50;5026238;28;24439;-74
2022/07/23 09:23:48;;;;;;;5.43;4.00;;;;;;;26.17;51.69;96073.97;5025094;28;24439;-74
2022/07/23 09:26:30;;;;;;;4.10;3.40;;;;;;;26.44;53.62;96066.28;5031268;28;24444;-74
2022/07/23 09:29:00;;;;;;;3.87;3.30;;;;;;;26.36;47.66;96063.75;5034520;28;24427;-73
2022/07/23 09:31:33;;;;;;;4.45;3.40;;;;;;;26.56;49.86;96058.72;5034121;28;25240;-74
2022/07/23 09:34:08;;;;;;;4.75;3.75;;;;;;;27.05;46.97;96060.59;5034667;28;24996;-73
2022/07/23 09:36:34;;;;;;;4.07;3.50;;;;;;;26.10;45.68;96059.78;5026115;28;24447;-70
2022/07/23 09:39:04;;;;;;;7.30;3.55;;;;;;;26.26;49.43;96064.91;5027859;28;24432;-74
2022/07/23 09:41:36;;;;;;;4.05;3.65;;;;;;;26.85;51.46;96060.44;5033341;28;24439;-74
2022/07/23 09:44:12;;;;;;;5.63;3.67;;;;;;;26.76;48.57;96065.03;5035102;28;24987;-74
2022/07/23 09:46:40;;;;;;;5.75;3.65;;;;;;;26.90;47.74;96061.47;5031215;28;24444;-74
2022/07/23 09:49:19;;;;;;;6.57;3.80;;;;;;;26.87;48.71;96061.88;5032545;28;25122;-74
2022/07/23 09:51:48;;;;;;;6.88;3.88;;;;;;;27.52;46.58;96054.63;5022823;28;24440;-75
2022/07/23 09:54:30;;;;;;;5.20;3.65;;;;;;;26.91;45.67;96062.31;5030633;28;24435;-74
2022/07/23 09:56:58;;;;;;;5.32;3.95;;;;;;;26.02;47.11;96070.50;5028845;28;24451;-74
2022/07/23 09:59:28;;;;;;;3.70;3.30;;;;;;;26.40;47.39;96063.22;5034025;28;24443;-74
2022/07/23 10:01:56;;;;;;;5.22;4.00;;;;;;;26.34;47.80;96068.47;5034353;28;24884;-74
2022/07/23 10:04:25;;;;;;;6.20;4.20;;;;;;;26.61;46.01;96072.25;5025674;28;25008;-74
2022/07/23 10:06:53;;;;;;;4.65;4.05;;;;;;;26.78;46.60;96074.47;5033965;28;24794;-74
2022/07/23 10:09:25;;;;;;;4.15;3.75;;;;;;;27.20;46.60;96067.50;5032906;28;24479;-74
2022/07/23 10:11:54;;;;;;;4.82;3.83;;;;;;;26.65;46.87;96076.97;5027234;28;24443;-74
2022/07/23 10:14:21;;;;;;;4.90;3.77;;;;;;;26.89;47.79;96073.13;5023762;28;24443;-74
2022/07/23 10:16:49;;;;;;;5.03;4.00;;;;;;;27.16;48.62;96070.72;5028790;28;24535;-75
2022/07/23 10:19:15;;;;;;;4.35;3.70;;;;;;;27.42;45.71;96064.78;5032799;28;24527;-75
2022/07/23 10:21:47;;;;;;;3.67;3.38;;;;;;;27.57;45.75;96062.03;5028046;28;24443;-75
2022/07/23 10:24:31;;;;;;;3.67;3.30;;;;;;;27.74;44.63;96068.69;5032808;28;24438;-74
2022/07/23 10:27:13;;;;;;;4.07;3.65;;;;;;;27.48;44.60;96070.16;5028141;28;24443;-74
2022/07/23 10:29:46;;;;;;;4.30;3.63;;;;;;;27.54;45.95;96067.72;5033703;28;24456;-74
2022/07/23 10:32:27;;;;;;;5.63;3.78;;;;;;;27.03;47.25;96074.06;5025402;28;24432;-74
2022/07/23 10:34:59;;;;;;;5.03;3.90;;;;;;;26.81;47.78;96072.41;5023529;28;24472;-74
2022/07/23 10:37:33;;;;;;;5.20;4.00;;;;;;;26.82;48.10;96074.09;5027190;28;24440;-74
2022/07/23 10:40:11;;;;;;;3.83;3.42;;;;;;;26.87;47.34;96069.00;5028135;28;24440;-74
2022/07/23 10:42:39;;;;;;;5.28;4.35;;;;;;;27.29;48.08;96062.03;5028763;28;24464;-74
2022/07/23 10:45:24;;;;;;;6.78;4.07;;;;;;;26.95;46.54;96058.25;5025160;28;24501;-74
2022/07/23 10:47:51;;;;;;;4.30;3.53;;;;;;;26.36;47.26;96053.97;5027202;28;24443;-74
2022/07/23 10:50:22;;;;;;;5.23;4.17;;;;;;;26.75;47.57;96058.06;5020014;28;24718;-74
2022/07/23 10:53:17;;;;;;;5.28;3.97;;;;;;;26.49;47.86;96059.47;5031859;28;24436;-74
2022/07/23 10:55:52;;;;;;;5.80;4.15;;;;;;;26.49;47.93;96051.50;5027953;28;25082;-74
2022/07/23 10:58:45;;;;;;;5.03;3.83;;;;;;;26.41;48.33;96050.75;5027305;28;24777;-74
2022/07/23 11:01:33;;;;;;;6.72;4.30;;;;;;;26.58;48.42;96064.63;5025483;28;24496;-74
2022/07/23 11:04:00;;;;;;;5.13;3.92;;;;;;;27.04;51.39;96057.13;5020160;28;24548;-74
2022/07/23 11:07:07;;;;;;;6.55;4.15;;;;;;;27.35;47.47;96054.09;5029039;28;25175;-74
2022/07/23 11:09:40;;;;;;;6.55;4.10;;;;;;;27.44;47.39;96052.94;5027516;28;24487;-74
2022/07/23 11:12:36;;;;;;;5.28;3.80;;;;;;;26.86;48.04;96056.75;5019541;28;24537;-73
2022/07/23 11:15:07;;;;;;;6.60;4.40;;;;;;;26.67;49.21;96056.38;5016529;28;24447;-74
2022/07/23 11:17:35;;;;;;;4.53;4.13;;;;;;;26.88;48.47;96062.69;5030435;28;24479;-73
2022/07/23 11:20:21;;;;;;;8.03;4.10;;;;;;;27.40;47.96;96062.34;5030651;28;25019;-73
2022/07/23 11:22:51;;;;;;;4.87;4.13;;;;;;;27.16;46.77;96058.25;5027505;28;24439;-73
2022/07/23 11:25:33;;;;;;;4.35;3.95;;;;;;;27.22;46.96;96043.38;5027329;28;24443;-73
2022/07/23 11:28:11;;;;;;;6.60;4.55;;;;;;;27.68;48.44;96043.66;5026476;28;24447;-73
2022/07/23 11:30:43;;;;;;;6.07;3.93;;;;;;;27.20;46.77;96040.91;5030799;28;24462;-73
2022/07/23 11:33:22;;;;;;;4.72;4.10;;;;;;;26.82;47.21;96047.53;5021135;28;25317;-73
2022/07/23 11:36:01;;;;;;;5.50;4.15;;;;;;;27.24;47.56;96044.81;5020392;28;24491;-73
2022/07/23 11:38:28;;;;;;;4.72;3.80;;;;;;;27.50;47.74;96051.34;5028916;28;24448;-74